Terminal Aerodrome Forecast
Issued by NWS

Home | Current Version | Previous Version | Graphics & Text | Print | Product List | Glossary On
Versions: 1 2 3 4 5 6 7 8 9 10 11 12 13 14 15 16
000
FTUS43 KGRB 210300 AAA
TAFRHI
TAF AMD
KRHI 210336Z 2104/2124 VRB03KT 4SM BR SCT004 SCT100
      TEMPO 2104/2108 1/2SM FG VV004
     FM210800 VRB02KT 5SM BR SCT005 SCT080
      TEMPO 2108/2112 1SM BR VV005
     FM211400 23004KT 6SM HZ SCT040 SCT100
     FM211600 26006KT P6SM SCT040 BKN070 PROB30 2116/2119 -SHRA
      BKN040
     FM211900 30010G17KT P6SM SCT040 SCT090=

USA.gov is the U.S. government's official web portal to all federal, state and local government web resources and services.